Aviation Digital Data Service (ADDS)

Output produced by METARs form (0152 UTC 22 June 2018)
found at http://www.aviationweather.gov/adds/metars/
 
EFJY 220120Z AUTO 06011KT 8000 +TSRA OVC005 13/12 Q0991 RETSRA
EFJY 220050Z AUTO 05007KT 9000 RA OVC005 12/12 Q0992
EFJY 220020Z AUTO 05007KT 9999 RA OVC005 12/12 Q0993
EFJY 212350Z AUTO 05005KT 9999 -RA OVC012 12/11 Q0995 RERA
EFJY 212320Z AUTO 04005KT 9999 RA OVC014 12/11 Q0996
EFJY 212250Z AUTO 04003KT 9999 RA OVC014 12/11 Q0997 RERA
EFJY 212220Z AUTO VRB02KT 9000 SHRA OVC017 12/10 Q0997 RESHRA
EFJY 212150Z AUTO VRB02KT 9999 -SHRA OVC018 12/09 Q0998
EFJY 212120Z AUTO 05004KT 9999 OVC026 12/09 Q0998
EFJY 212050Z AUTO 06005KT 9999 OVC039 12/09 Q0998
EFJY 212020Z AUTO VRB02KT 9999 -SHRA OVC040 12/09 Q0999
EFJY 211950Z AUTO VRB02KT 9999 OVC043 12/09 Q0999
EFJY 211920Z AUTO 05004KT CAVOK 12/08 Q1000
EFJY 211850Z AUTO 05004KT CAVOK 12/08 Q1000
EFJY 211820Z AUTO 01006KT CAVOK 12/09 Q1000
EFJY 211750Z AUTO 01005KT 9999 -RA OVC060 12/10 Q1001
EFJY 211720Z AUTO VRB01KT 9999 -SHRA OVC054 12/10 Q1002 RESHRA
EFJY 211650Z AUTO 17006KT 9999 SHRA OVC054 13/07 Q1002
EFJY 211620Z AUTO 32004KT 9999 -SHRA OVC062 16/01 Q1002
EFJY 211550Z AUTO 14010KT CAVOK 17/01 Q1002
EFJY 211520Z AUTO 16011KT CAVOK 18/02 Q1002
EFJY 211450Z AUTO 14011KT CAVOK 18/02 Q1002
EFJY 211350Z AUTO 15008KT CAVOK 18/01 Q1002
EFJY 211320Z AUTO 16008KT 130V210 CAVOK 19/02 Q1002
EFJY 211250Z AUTO 14007KT 100V180 CAVOK 19/02 Q1002
EFJY 211220Z AUTO 16007KT 110V200 CAVOK 19/01 Q1002
EFJY 211150Z AUTO 15009KT 080V190 CAVOK 20/01 Q1002
EFJY 211120Z AUTO 14008KT CAVOK 19/01 Q1003
EFJY 211050Z AUTO 18006KT 110V230 CAVOK 19/02 Q1003
EFJY 211020Z AUTO 19006KT 130V330 CAVOK 18/01 Q1003
EFJY 210950Z AUTO VRB03KT CAVOK 18/02 Q1003
EFJY 210920Z AUTO 17005KT CAVOK 19/01 Q1003
EFJY 210850Z AUTO 18004KT 140V230 CAVOK 18/02 Q1003
EFJY 210820Z AUTO 18006KT 120V240 CAVOK 17/01 Q1003
EFJY 210750Z AUTO 16006KT 120V230 CAVOK 17/01 Q1003
EFJY 210720Z AUTO 16005KT 110V260 CAVOK 17/02 Q1003
EFJY 210650Z AUTO 19004KT 060V260 CAVOK 16/03 Q1004
EFJY 210620Z AUTO 22005KT 150V360 CAVOK 16/03 Q1004
EFJY 210550Z AUTO 21005KT 150V270 CAVOK 14/04 Q1004
EFJY 210520Z AUTO VRB03KT 200V330 CAVOK 14/04 Q1004
EFJY 210450Z AUTO 25004KT 190V290 CAVOK 13/04 Q1004
EFJY 210420Z AUTO 26005KT 210V290 CAVOK 12/03 Q1004
EFJY 210350Z AUTO VRB02KT CAVOK 12/03 Q1004
EFJY 210320Z AUTO VRB02KT CAVOK 11/04 Q1004
EFJY 210250Z AUTO VRB01KT CAVOK 08/04 Q1004
EFJY 210220Z AUTO 00000KT CAVOK 06/03 Q1004
EFJY 210150Z AUTO 12003KT CAVOK 06/02 Q1004
EFJY 210120Z AUTO 12003KT CAVOK 07/03 Q1004
EFJY 210050Z AUTO 10002KT CAVOK 07/02 Q1004
EFJY 210020Z AUTO VRB02KT CAVOK 08/02 Q1004
EFJY 202350Z AUTO VRB00KT CAVOK 09/02 Q1004
EFJY 202320Z AUTO VRB01KT CAVOK 09/02 Q1004
EFJY 202250Z AUTO 24002KT CAVOK 10/02 Q1004
EFJY 202220Z AUTO 24004KT CAVOK 09/03 Q1004
EFJY 202150Z AUTO 25004KT CAVOK 11/02 Q1004
EFJY 202120Z AUTO 25004KT 210V300 CAVOK 12/02 Q1004
EFJY 202050Z AUTO 25004KT CAVOK 12/02 Q1004
EFJY 202020Z AUTO 26004KT CAVOK 13/02 Q1004
EFJY 201950Z AUTO 27006KT CAVOK 14/02 Q1003
EFJY 201920Z AUTO 27005KT CAVOK 15/02 Q1003
EFJY 201850Z AUTO 29009KT CAVOK 16/02 Q1003
EFJY 201820Z AUTO 29009KT CAVOK 16/01 Q1003
EFJY 201750Z AUTO 28011KT CAVOK 17/01 Q1003
EFJY 201720Z AUTO 29012KT CAVOK 17/01 Q1003
EFJY 201650Z AUTO 29014KT CAVOK 18/00 Q1003
EFJY 201620Z AUTO 29014KT CAVOK 18/00 Q1003
EFJY 201550Z AUTO 28015KT CAVOK 19/00 Q1003
EFJY 201520Z AUTO 28013G24KT 250V320 CAVOK 18/01 Q1003
EFJY 201450Z AUTO 26013G26KT 230V300 CAVOK 19/01 Q1003
EFJY 201420Z AUTO 28014KT CAVOK 18/01 Q1003